createdAt,value
2019-06-27T00:00:32.500Z,54.38
2019-06-27T00:01:32.820Z,53.95
2019-06-27T00:02:32.470Z,53.45
2019-06-27T00:03:32.471Z,54.55
2019-06-27T00:04:32.488Z,55.48
2019-06-27T00:05:32.478Z,56.09
2019-06-27T00:06:32.429Z,56.31
2019-06-27T00:07:32.489Z,56.21
2019-06-27T00:08:32.409Z,55.81
2019-06-27T00:09:32.399Z,56.21
2019-06-27T00:10:34.462Z,56.01
2019-06-27T00:11:32.370Z,56.41
2019-06-27T00:12:32.369Z,56.51
2019-06-27T00:13:32.350Z,56.71
2019-06-27T00:14:32.338Z,56.82
2019-06-27T00:15:32.339Z,57.15
2019-06-27T00:16:32.358Z,56.95
2019-06-27T00:17:32.308Z,56.54
2019-06-27T00:18:32.300Z,56.34
2019-06-27T00:19:32.289Z,56.24
2019-06-27T00:20:32.278Z,56.44
2019-06-27T00:21:32.307Z,55.61
2019-06-27T00:22:32.249Z,56.04
2019-06-27T00:23:32.280Z,55.54
2019-06-27T00:24:32.229Z,55.03
2019-06-27T00:25:32.218Z,54.71
2019-06-27T00:26:32.269Z,54.40
2019-06-27T00:27:32.238Z,54.60
2019-06-27T00:28:32.191Z,54.91
2019-06-27T00:29:32.188Z,54.91
2019-06-27T00:30:32.169Z,55.03
2019-06-27T00:31:32.156Z,54.93
2019-06-27T00:32:32.206Z,54.83
2019-06-27T00:33:32.168Z,54.53
2019-06-27T00:34:32.128Z,54.83
2019-06-27T00:35:32.122Z,55.03
2019-06-27T00:36:32.097Z,54.53
2019-06-27T00:37:32.088Z,54.60
2019-06-27T00:38:32.090Z,54.63
2019-06-27T00:39:32.100Z,54.83
2019-06-27T00:40:32.097Z,55.13
2019-06-27T00:41:32.048Z,55.54
2019-06-27T00:42:32.037Z,55.83
2019-06-27T00:43:32.061Z,55.96
2019-06-27T00:44:32.027Z,55.56
2019-06-27T00:45:32.038Z,55.16
2019-06-27T00:46:31.986Z,55.06
2019-06-27T00:47:31.997Z,55.06
2019-06-27T00:48:32.025Z,55.26
2019-06-27T00:49:31.998Z,55.16
2019-06-27T00:50:31.955Z,55.36
2019-06-27T00:51:31.938Z,55.26
2019-06-27T00:52:31.929Z,55.36
2019-06-27T00:53:31.917Z,55.76
2019-06-27T00:54:31.907Z,54.66
2019-06-27T00:55:31.940Z,54.35
2019-06-27T00:56:31.887Z,54.53
2019-06-27T00:57:31.877Z,55.16
2019-06-27T00:58:31.866Z,55.26
2019-06-27T00:59:31.860Z,55.26
2019-06-27T01:00:31.849Z,55.46
2019-06-27T01:01:31.869Z,55.36
2019-06-27T01:02:31.825Z,55.36
2019-06-27T01:03:31.812Z,55.19
2019-06-27T01:04:31.797Z,55.29
2019-06-27T01:05:31.788Z,55.59
2019-06-27T01:06:31.776Z,55.69
2019-06-27T01:07:31.830Z,55.89
2019-06-27T01:08:31.756Z,55.89
2019-06-27T01:09:31.747Z,55.26
2019-06-27T01:10:31.750Z,54.66
2019-06-27T01:11:31.739Z,55.06
2019-06-27T01:12:31.717Z,55.46
2019-06-27T01:13:31.803Z,55.16
2019-06-27T01:14:31.696Z,54.96
2019-06-27T01:15:31.684Z,54.46
2019-06-27T01:16:31.676Z,54.66
2019-06-27T01:17:31.666Z,54.55
2019-06-27T01:18:31.656Z,54.66
2019-06-27T01:19:31.666Z,54.75
2019-06-27T01:20:31.629Z,54.79
2019-06-27T01:21:31.615Z,54.99
2019-06-27T01:22:31.607Z,54.79
2019-06-27T01:23:31.596Z,54.99
2019-06-27T01:24:31.626Z,54.88
2019-06-27T01:25:31.576Z,55.19
2019-06-27T01:26:31.566Z,55.36
2019-06-27T01:27:31.557Z,55.46
2019-06-27T01:28:31.536Z,55.66
2019-06-27T01:29:31.533Z,55.89
2019-06-27T01:30:31.556Z,55.89
2019-06-27T01:31:31.614Z,55.69
2019-06-27T01:32:32.055Z,55.69
2019-06-27T01:33:31.486Z,55.46
2019-06-27T01:34:31.515Z,54.96
2019-06-27T01:35:31.538Z,54.96
2019-06-27T01:36:31.455Z,55.16
2019-06-27T01:37:31.450Z,55.16
2019-06-27T01:38:31.436Z,55.26
2019-06-27T01:39:31.415Z,54.96
2019-06-27T01:40:31.442Z,55.56
2019-06-27T01:41:31.404Z,55.87
2019-06-27T01:42:31.385Z,56.09
2019-06-27T01:43:31.394Z,55.89
2019-06-27T01:44:31.365Z,56.09
2019-06-27T01:45:31.430Z,56.20
2019-06-27T01:46:31.344Z,56.20
2019-06-27T01:47:31.358Z,55.89
2019-06-27T01:48:31.397Z,55.79
2019-06-27T01:49:31.313Z,55.49
2019-06-27T01:50:31.304Z,55.39
2019-06-27T01:51:31.324Z,55.19
2019-06-27T01:52:31.282Z,55.08
2019-06-27T01:53:31.265Z,55.39
2019-06-27T01:54:31.265Z,55.39
2019-06-27T01:55:31.255Z,55.29
2019-06-27T01:56:31.283Z,55.49
2019-06-27T01:57:45.582Z,55.19
2019-06-27T01:58:32.235Z,55.69
2019-06-27T01:59:31.204Z,55.49
2019-06-27T02:00:31.194Z,55.69
2019-06-27T02:01:31.183Z,55.99
2019-06-27T02:02:31.183Z,56.09
2019-06-27T02:03:31.193Z,56.20
2019-06-27T02:04:31.152Z,56.20
2019-06-27T02:05:31.157Z,56.20
2019-06-27T02:06:31.135Z,56.20
2019-06-27T02:07:31.140Z,55.69
2019-06-27T02:08:31.131Z,55.99
2019-06-27T02:09:33.449Z,55.79
2019-06-27T02:10:31.237Z,55.89
2019-06-27T02:11:31.074Z,55.79
2019-06-27T02:12:31.073Z,55.89
2019-06-27T02:13:31.082Z,56.20
2019-06-27T02:14:31.042Z,56.60
2019-06-27T02:15:31.074Z,56.70
2019-06-27T02:16:31.021Z,56.60
2019-06-27T02:17:31.022Z,56.40
2019-06-27T02:18:31.002Z,56.49
2019-06-27T02:19:31.007Z,56.80
2019-06-27T02:20:30.983Z,57.20
2019-06-27T02:21:31.002Z,57.32
2019-06-27T02:22:30.962Z,57.32
2019-06-27T02:23:30.941Z,56.82
2019-06-27T02:24:30.937Z,56.80
2019-06-27T02:25:30.932Z,56.90
2019-06-27T02:26:30.923Z,57.12
2019-06-27T02:27:30.942Z,57.12
2019-06-27T02:28:30.893Z,57.03
2019-06-27T02:29:30.881Z,56.82
2019-06-27T02:30:30.927Z,56.62
2019-06-27T02:31:30.865Z,56.92
2019-06-27T02:32:30.911Z,56.72
2019-06-27T02:33:30.883Z,56.52
2019-06-27T02:34:30.839Z,57.03
2019-06-27T02:35:30.924Z,57.32
2019-06-27T02:36:30.802Z,57.03
2019-06-27T02:37:30.804Z,56.82
2019-06-27T02:38:30.790Z,56.72
2019-06-27T02:39:30.812Z,56.72
2019-06-27T02:40:30.762Z,57.23
2019-06-27T02:41:30.751Z,57.53
2019-06-27T02:42:30.743Z,57.43
2019-06-27T02:43:30.809Z,57.43
2019-06-27T02:44:30.721Z,57.53
2019-06-27T02:45:30.709Z,57.23
2019-06-27T02:46:30.700Z,57.43
2019-06-27T02:47:30.729Z,56.92
2019-06-27T02:48:30.671Z,56.62
2019-06-27T02:49:30.688Z,56.92
2019-06-27T02:50:30.661Z,57.15
2019-06-27T02:51:30.642Z,57.15
2019-06-27T02:52:30.630Z,57.15
2019-06-27T02:53:30.661Z,57.25
2019-06-27T02:54:30.614Z,57.05
2019-06-27T02:55:30.602Z,56.85
2019-06-27T02:56:30.589Z,56.35
2019-06-27T02:57:30.630Z,56.62
2019-06-27T02:58:32.338Z,55.71
2019-06-27T02:59:30.571Z,56.02
2019-06-27T03:00:30.606Z,56.32
2019-06-27T03:01:30.557Z,56.22
2019-06-27T03:02:30.520Z,56.42
2019-06-27T03:03:30.551Z,54.91
2019-06-27T03:04:30.510Z,55.41
2019-06-27T03:05:30.500Z,56.22
2019-06-27T03:06:30.481Z,56.72
2019-06-27T03:07:30.479Z,57.05
2019-06-27T03:08:30.498Z,56.95
2019-06-27T03:09:30.480Z,56.85
2019-06-27T03:10:30.440Z,56.75
2019-06-27T03:11:30.430Z,57.25
2019-06-27T03:12:30.421Z,57.25
2019-06-27T03:13:30.440Z,57.15
2019-06-27T03:14:30.399Z,57.15
2019-06-27T03:15:30.388Z,56.85
2019-06-27T03:16:30.377Z,56.85
2019-06-27T03:17:30.368Z,56.24
2019-06-27T03:18:30.417Z,55.91
2019-06-27T03:19:30.341Z,56.82
2019-06-27T03:20:30.333Z,56.85
2019-06-27T03:21:30.321Z,56.62
2019-06-27T03:22:30.320Z,57.12
2019-06-27T03:23:30.307Z,57.35
2019-06-27T03:24:30.330Z,57.25
2019-06-27T03:25:30.578Z,57.45
2019-06-27T03:26:30.269Z,57.25
2019-06-27T03:27:30.268Z,57.15
2019-06-27T03:28:49.895Z,56.85
2019-06-27T03:29:31.271Z,55.62
2019-06-27T03:30:30.238Z,56.12
2019-06-27T03:31:30.209Z,56.42
2019-06-27T03:32:30.260Z,57.03
2019-06-27T03:33:30.232Z,56.82
2019-06-27T03:34:30.219Z,56.95
2019-06-27T03:35:30.211Z,57.25
2019-06-27T03:36:30.162Z,57.35
2019-06-27T03:37:30.147Z,57.15
2019-06-27T03:38:30.137Z,57.25
2019-06-27T03:39:30.168Z,57.56
2019-06-27T03:40:30.138Z,55.64
2019-06-27T03:41:30.114Z,54.91
2019-06-27T03:42:30.095Z,57.03
2019-06-27T03:43:30.086Z,57.12
2019-06-27T03:44:30.077Z,57.86
2019-06-27T03:45:30.108Z,57.86
2019-06-27T03:46:30.088Z,58.06
2019-06-27T03:47:30.063Z,57.56
2019-06-27T03:48:30.031Z,57.56
2019-06-27T03:49:30.067Z,57.56
2019-06-27T03:50:30.016Z,57.25
2019-06-27T03:51:29.998Z,56.85
2019-06-27T03:52:30.028Z,56.95
2019-06-27T03:53:29.978Z,56.85
2019-06-27T03:54:29.976Z,57.25
2019-06-27T03:55:29.987Z,57.65
2019-06-27T03:56:29.957Z,58.06
2019-06-27T03:57:29.937Z,57.86
2019-06-27T03:58:29.978Z,57.96
2019-06-27T03:59:29.920Z,57.76
2019-06-27T04:01:36.446Z,57.65
2019-06-27T04:02:51.454Z,56.65
2019-06-27T04:03:43.737Z,57.56
2019-06-27T04:04:44.037Z,57.25
2019-06-27T04:05:44.489Z,57.76
2019-06-27T04:06:43.273Z,57.65
2019-06-27T04:10:32.368Z,57.56
2019-06-27T04:11:06.074Z,57.86
2019-06-27T04:11:58.942Z,58.26
2019-06-27T04:12:58.928Z,58.16
2019-06-27T04:13:58.949Z,58.16
2019-06-27T04:14:58.914Z,57.12
2019-06-27T04:15:58.895Z,57.03
2019-06-27T04:16:58.946Z,57.43
2019-06-27T04:17:58.884Z,57.43
2019-06-27T04:18:58.877Z,56.52
2019-06-27T04:19:59.444Z,58.03
2019-06-27T04:20:58.896Z,58.23
2019-06-27T04:21:58.824Z,58.34
2019-06-27T04:22:58.830Z,57.73
2019-06-27T04:23:58.822Z,57.23
2019-06-27T04:24:58.811Z,57.83
2019-06-27T04:25:58.790Z,57.83
2019-06-27T04:26:58.834Z,57.30
2019-06-27T04:28:00.349Z,57.30
2019-06-27T04:28:58.801Z,55.59
2019-06-27T04:29:58.739Z,57.60
2019-06-27T04:30:58.776Z,58.21
2019-06-27T04:31:58.731Z,58.23
2019-06-27T04:32:58.724Z,58.21
2019-06-27T04:33:58.703Z,57.98
2019-06-27T04:34:58.690Z,55.83
2019-06-27T04:35:58.691Z,56.71
2019-06-27T04:36:58.703Z,55.58
2019-06-27T04:37:58.684Z,56.29
2019-06-27T04:38:58.703Z,56.96
2019-06-27T04:39:58.632Z,56.96
2019-06-27T04:40:58.627Z,55.55
2019-06-27T04:41:58.617Z,54.35
2019-06-27T04:42:58.600Z,55.55
2019-06-27T04:43:58.598Z,55.55
2019-06-27T04:44:58.742Z,54.63
2019-06-27T04:45:58.567Z,55.83
2019-06-27T04:46:58.570Z,55.03
2019-06-27T04:47:59.481Z,52.49
2019-06-27T04:48:58.537Z,51.59
2019-06-27T04:49:58.531Z,53.17
2019-06-27T04:50:58.569Z,54.25
2019-06-27T04:51:58.508Z,56.76
2019-06-27T04:52:58.505Z,54.25
2019-06-27T04:53:58.477Z,52.44
2019-06-27T04:55:02.883Z,53.14
2019-06-27T04:55:59.459Z,52.24
2019-06-27T04:56:58.492Z,51.14
2019-06-27T04:57:58.443Z,52.37
2019-06-27T04:58:58.463Z,52.24
2019-06-27T04:59:58.438Z,52.75
2019-06-27T05:00:58.460Z,52.72
2019-06-27T05:01:58.426Z,53.22
2019-06-27T05:02:58.406Z,53.69
2019-06-27T05:03:58.414Z,51.67
2019-06-27T05:04:58.376Z,52.17
2019-06-27T05:05:58.348Z,53.17
2019-06-27T05:06:58.380Z,51.84
2019-06-27T05:07:58.336Z,55.72
2019-06-27T05:08:58.320Z,53.12
2019-06-27T05:09:58.381Z,52.02
2019-06-27T05:10:58.318Z,48.32
2019-06-27T05:11:58.328Z,49.82
2019-06-27T05:12:58.336Z,47.99
2019-06-27T05:13:58.258Z,47.69
2019-06-27T05:14:58.246Z,48.17
2019-06-27T05:15:59.246Z,49.44
2019-06-27T05:16:58.255Z,47.45
2019-06-27T05:17:58.345Z,47.42
2019-06-27T05:18:58.218Z,47.22
2019-06-27T05:19:58.187Z,52.42
2019-06-27T05:20:58.185Z,48.52
2019-06-27T05:21:58.186Z,48.10
2019-06-27T05:22:58.158Z,48.40
2019-06-27T05:23:58.197Z,49.00
2019-06-27T05:24:58.145Z,48.88
2019-06-27T05:25:58.188Z,50.27
2019-06-27T05:26:58.157Z,48.35
2019-06-27T05:27:58.107Z,47.56
2019-06-27T05:28:58.103Z,51.92
2019-06-27T05:30:08.649Z,50.25
2019-06-27T05:30:59.078Z,47.16
2019-06-27T05:31:58.077Z,44.57
2019-06-27T05:32:58.090Z,46.96
2019-06-27T05:33:58.046Z,49.08
2019-06-27T05:34:58.031Z,49.70
2019-06-27T05:35:58.078Z,50.12
2019-06-27T05:36:58.009Z,51.02
2019-06-27T05:38:25.517Z,52.49
2019-06-27T05:39:05.857Z,48.78
2019-06-27T05:43:25.450Z,52.69
2019-06-27T05:44:25.357Z,50.30
2019-06-27T05:45:25.407Z,48.68
2019-06-27T05:46:25.347Z,48.97
2019-06-27T05:47:25.329Z,49.95
2019-06-27T05:48:32.481Z,48.55
2019-06-27T05:49:25.317Z,47.66
2019-06-27T05:50:32.413Z,48.75
2019-06-27T05:51:25.315Z,47.78
2019-06-27T05:52:32.424Z,48.30
2019-06-27T05:54:35.139Z,48.78
2019-06-27T05:55:42.239Z,50.15
2019-06-27T05:57:44.868Z,50.85
2019-06-27T05:59:53.662Z,49.23
2019-06-27T06:02:02.780Z,48.46
2019-06-27T06:03:09.914Z,49.38
2019-06-27T06:04:09.869Z,47.48
2019-06-27T06:05:09.900Z,48.75
2019-06-27T06:07:12.501Z,48.21
2019-06-27T06:09:21.303Z,53.19
2019-06-27T06:10:21.314Z,48.21
2019-06-27T06:12:30.095Z,49.51
2019-06-27T06:13:30.071Z,47.81
2019-06-27T06:14:30.060Z,44.02
2019-06-27T06:15:30.002Z,43.71
2019-06-27T06:17:38.889Z,46.75
2019-06-27T06:18:38.827Z,46.57
2019-06-27T06:19:38.793Z,47.07
2019-06-27T06:20:38.808Z,47.39
2019-06-27T06:22:47.646Z,50.65
2019-06-27T06:23:47.701Z,49.73
2019-06-27T06:24:47.566Z,47.05
2019-06-27T06:26:47.415Z,47.27
2019-06-27T06:27:47.354Z,45.90
2019-06-27T06:28:47.354Z,47.89
2019-06-27T06:29:47.382Z,49.38
2019-06-27T06:30:49.544Z,45.70
2019-06-27T06:31:49.387Z,46.39
2019-06-27T06:32:47.306Z,47.99
2019-06-27T06:33:47.305Z,49.40
2019-06-27T06:34:47.437Z,45.62
2019-06-27T06:35:47.316Z,45.40
2019-06-27T06:36:47.264Z,47.66
2019-06-27T06:37:47.296Z,44.88
2019-06-27T06:38:47.250Z,43.49
2019-06-27T06:39:47.288Z,44.88
2019-06-27T06:40:47.226Z,52.32
2019-06-27T06:41:47.244Z,47.42
2019-06-27T06:42:47.195Z,49.01
2019-06-27T06:43:47.232Z,47.50
2019-06-27T06:44:47.175Z,46.08
2019-06-27T06:45:47.176Z,44.70
2019-06-27T06:46:47.213Z,44.74
2019-06-27T06:47:47.143Z,46.42
2019-06-27T06:48:47.145Z,42.94
2019-06-27T06:49:47.149Z,43.05
2019-06-27T06:50:47.141Z,43.54
2019-06-27T06:51:47.124Z,44.92
2019-06-27T06:52:47.125Z,40.14
2019-06-27T06:53:47.215Z,38.56
2019-06-27T06:54:47.086Z,39.54
2019-06-27T06:55:47.059Z,38.14
2019-06-27T06:56:47.044Z,38.32
2019-06-27T06:57:47.057Z,39.29
2019-06-27T06:58:47.065Z,41.20
2019-06-27T06:59:53.775Z,38.10
2019-06-27T07:01:00.155Z,37.21
2019-06-27T07:01:48.027Z,36.91
2019-06-27T07:02:47.018Z,40.11
2019-06-27T07:03:54.200Z,42.58
2019-06-27T07:04:46.964Z,40.80
2019-06-27T07:05:46.969Z,44.15
2019-06-27T07:06:46.968Z,40.58
2019-06-27T07:07:46.938Z,40.48
2019-06-27T07:08:47.693Z,43.26
2019-06-27T07:09:47.139Z,41.16
2019-06-27T07:10:46.925Z,39.36
2019-06-27T07:11:46.889Z,44.41
2019-06-27T07:12:46.878Z,47.50
2019-06-27T07:13:46.890Z,46.04
2019-06-27T07:14:46.897Z,44.07
2019-06-27T07:15:46.923Z,44.57
2019-06-27T07:16:46.929Z,45.84
2019-06-27T07:17:46.820Z,43.46
2019-06-27T07:18:53.991Z,43.38
2019-06-27T07:19:46.816Z,46.44
2019-06-27T07:20:46.827Z,41.97
2019-06-27T07:21:46.842Z,38.90
2019-06-27T07:22:46.771Z,38.98
2019-06-27T07:23:46.755Z,43.34
2019-06-27T07:24:46.743Z,43.71
2019-06-27T07:25:46.774Z,41.53
2019-06-27T07:26:46.814Z,43.93
2019-06-27T07:27:46.718Z,41.55
2019-06-27T07:28:46.714Z,45.10
2019-06-27T07:29:46.753Z,42.52
2019-06-27T07:30:46.688Z,41.24
2019-06-27T07:31:46.678Z,43.82
2019-06-27T07:32:46.665Z,42.33
2019-06-27T07:33:46.651Z,42.33
2019-06-27T07:34:46.638Z,41.63
2019-06-27T07:35:46.672Z,44.11
2019-06-27T07:36:46.620Z,45.68
2019-06-27T07:37:46.630Z,45.56
2019-06-27T07:38:47.400Z,43.48
2019-06-27T07:39:46.580Z,44.67
2019-06-27T07:40:46.578Z,42.29
2019-06-27T07:41:46.590Z,41.71
2019-06-27T07:42:46.550Z,42.11
2019-06-27T07:43:46.559Z,40.92
2019-06-27T07:44:46.539Z,44.68
2019-06-27T07:45:46.567Z,43.49
2019-06-27T07:46:46.632Z,43.70
2019-06-27T07:47:46.532Z,42.11
2019-06-27T07:48:46.491Z,43.18
2019-06-27T07:49:46.585Z,42.68
2019-06-27T07:50:46.485Z,45.26
2019-06-27T07:51:47.451Z,43.79
2019-06-27T07:52:46.450Z,44.56
2019-06-27T07:53:46.433Z,43.87
2019-06-27T07:54:46.459Z,44.46
2019-06-27T07:55:46.439Z,41.67
2019-06-27T07:56:46.635Z,41.08
2019-06-27T07:57:46.392Z,42.07
2019-06-27T07:58:46.407Z,43.85
2019-06-27T07:59:46.370Z,42.29
2019-06-27T08:00:46.368Z,41.71
2019-06-27T08:01:46.412Z,40.90
2019-06-27T08:02:46.339Z,43.35
2019-06-27T08:03:46.327Z,40.48
2019-06-27T08:04:46.309Z,39.69
2019-06-27T08:05:46.310Z,46.33
2019-06-27T08:06:46.316Z,40.37
2019-06-27T08:07:49.579Z,40.09
2019-06-27T08:08:46.299Z,41.67
2019-06-27T08:09:53.533Z,44.13
2019-06-27T08:10:46.370Z,40.66
2019-06-27T08:11:53.460Z,41.65
2019-06-27T08:13:56.155Z,40.94
2019-06-27T08:14:56.059Z,39.58
2019-06-27T08:15:56.040Z,38.60
2019-06-27T08:16:59.258Z,39.97
2019-06-27T08:17:55.989Z,40.07
2019-06-27T08:18:55.975Z,39.40
2019-06-27T08:19:55.966Z,42.84
2019-06-27T08:20:56.006Z,38.88
2019-06-27T08:22:04.833Z,39.08
2019-06-27T08:22:55.963Z,39.48
2019-06-27T08:23:55.941Z,40.34
2019-06-27T08:24:55.935Z,40.05
2019-06-27T08:25:55.906Z,39.16
2019-06-27T08:26:55.944Z,37.48
2019-06-27T08:27:55.978Z,38.88
2019-06-27T08:28:55.881Z,42.62
2019-06-27T08:29:55.869Z,38.94
2019-06-27T08:30:55.858Z,37.66
2019-06-27T08:31:57.958Z,40.23
2019-06-27T08:32:56.238Z,40.92
2019-06-27T08:33:55.808Z,37.56
2019-06-27T08:34:56.638Z,38.35
2019-06-27T08:35:55.848Z,38.45
2019-06-27T08:37:19.928Z,36.67
2019-06-27T08:37:55.779Z,38.06
2019-06-27T08:38:55.767Z,38.35
2019-06-27T08:39:55.830Z,38.15
2019-06-27T08:40:55.741Z,40.31
2019-06-27T08:42:14.622Z,41.49
2019-06-27T08:42:55.768Z,39.32
2019-06-27T08:43:55.760Z,38.92
2019-06-27T08:44:55.699Z,37.24
2019-06-27T08:45:55.723Z,38.63
2019-06-27T08:47:13.490Z,38.13
2019-06-27T08:49:05.321Z,39.12
2019-06-27T08:49:56.496Z,44.12
2019-06-27T08:50:56.580Z,39.09
2019-06-27T08:51:56.446Z,41.24
2019-06-27T08:52:56.451Z,39.28
2019-06-27T08:53:56.492Z,37.88
2019-06-27T08:54:56.451Z,37.01
2019-06-27T08:56:17.511Z,37.60
2019-06-27T08:56:56.390Z,38.20
2019-06-27T08:57:56.692Z,38.77
2019-06-27T08:58:56.383Z,36.32
2019-06-27T08:59:56.362Z,35.53
2019-06-27T09:00:59.767Z,36.40
2019-06-27T09:02:08.070Z,38.37
2019-06-27T09:02:57.332Z,39.34
2019-06-27T09:03:56.319Z,34.33
2019-06-27T09:04:57.243Z,34.82
2019-06-27T09:05:58.387Z,34.82
2019-06-27T09:06:56.322Z,33.25
2019-06-27T09:07:56.285Z,35.02
2019-06-27T09:08:56.272Z,35.02
2019-06-27T09:09:56.252Z,35.41
2019-06-27T09:10:56.355Z,35.81
2019-06-27T09:11:56.233Z,35.31
2019-06-27T09:12:56.257Z,34.53
2019-06-27T09:13:56.212Z,33.54
2019-06-27T09:14:58.164Z,36.58
2019-06-27T09:15:56.193Z,35.89
2019-06-27T09:16:56.224Z,35.02
2019-06-27T09:17:56.183Z,39.12
2019-06-27T09:18:56.174Z,36.74
2019-06-27T09:19:56.154Z,38.22
2019-06-27T09:20:56.143Z,35.94
2019-06-27T09:21:56.192Z,33.00
2019-06-27T09:22:56.124Z,33.89
2019-06-27T09:23:56.110Z,32.62
2019-06-27T09:25:12.025Z,33.79
2019-06-27T09:25:56.096Z,34.58
2019-06-27T09:26:56.193Z,34.18
2019-06-27T09:27:56.063Z,33.97
2019-06-27T09:28:56.064Z,33.48
2019-06-27T09:30:24.163Z,33.58
2019-06-27T09:30:56.045Z,32.69
2019-06-27T09:31:56.037Z,31.31
2019-06-27T09:32:56.065Z,35.15
2019-06-27T09:33:56.921Z,31.60
2019-06-27T09:34:56.004Z,34.56
2019-06-27T09:35:56.044Z,35.82
2019-06-27T09:36:55.975Z,37.18
2019-06-27T09:37:55.975Z,34.33
2019-06-27T09:38:56.004Z,36.18
2019-06-27T09:41:06.217Z,36.38
2019-06-27T09:41:57.231Z,34.61
2019-06-27T09:42:57.205Z,36.08
2019-06-27T09:43:57.194Z,33.64
2019-06-27T09:44:57.222Z,35.71
2019-06-27T09:45:57.190Z,38.84
2019-06-27T09:46:57.162Z,33.13
2019-06-27T09:47:57.165Z,33.64
2019-06-27T09:48:57.136Z,35.43
2019-06-27T09:49:57.176Z,38.56
2019-06-27T09:50:57.157Z,35.11
2019-06-27T09:51:57.107Z,33.15
2019-06-27T09:52:57.094Z,34.72
2019-06-27T09:53:58.233Z,33.05
2019-06-27T09:54:57.085Z,34.05
2019-06-27T09:55:57.062Z,32.59
2019-06-27T09:56:57.094Z,39.37
2019-06-27T09:57:57.045Z,40.29
2019-06-27T09:58:57.108Z,32.72
2019-06-27T09:59:57.016Z,35.59
2019-06-27T10:01:06.000Z,38.24
2019-06-27T10:01:57.080Z,36.83
2019-06-27T10:02:56.995Z,35.38
2019-06-27T10:04:02.246Z,38.11
2019-06-27T10:04:57.096Z,34.97
2019-06-27T10:05:56.995Z,32.14
2019-06-27T10:06:56.946Z,34.41
2019-06-27T10:07:56.962Z,34.41
2019-06-27T10:08:57.057Z,35.69
2019-06-27T10:09:56.907Z,34.61
2019-06-27T10:10:56.904Z,37.36
2019-06-27T10:11:56.890Z,37.85
2019-06-27T10:12:56.932Z,37.46
2019-06-27T10:13:56.902Z,36.59
2019-06-27T10:15:03.958Z,37.67
2019-06-27T10:15:56.874Z,34.51
2019-06-27T10:16:58.714Z,36.67
2019-06-27T10:17:56.842Z,35.39
2019-06-27T10:18:56.804Z,36.07
2019-06-27T10:19:56.796Z,35.49
2019-06-27T10:20:56.778Z,38.15
2019-06-27T10:21:56.808Z,34.11
2019-06-27T10:22:56.777Z,35.78
2019-06-27T10:23:56.749Z,36.18
2019-06-27T10:24:56.733Z,36.07
2019-06-27T10:25:56.730Z,37.03
2019-06-27T10:26:56.747Z,40.84
2019-06-27T10:27:56.753Z,36.11
2019-06-27T10:28:56.706Z,35.24
2019-06-27T10:29:56.682Z,38.40
2019-06-27T10:30:56.669Z,33.98
2019-06-27T10:31:56.660Z,34.49
2019-06-27T10:32:59.644Z,40.78
2019-06-27T10:33:56.679Z,34.56
2019-06-27T10:34:56.633Z,37.01
2019-06-27T10:35:56.658Z,35.55
2019-06-27T10:36:56.624Z,37.72
2019-06-27T10:37:56.640Z,36.75
2019-06-27T10:38:56.582Z,39.09
2019-06-27T10:39:56.577Z,39.86
2019-06-27T10:40:56.561Z,40.53
2019-06-27T10:41:56.562Z,39.45
2019-06-27T10:42:56.600Z,36.49
2019-06-27T10:43:58.573Z,36.19
2019-06-27T10:44:56.523Z,36.80
2019-06-27T10:45:56.566Z,32.86
2019-06-27T10:46:56.509Z,36.21
2019-06-27T10:47:56.492Z,34.06
2019-06-27T10:48:56.512Z,35.06
2019-06-27T10:49:56.510Z,35.93
2019-06-27T10:50:56.473Z,33.58
2019-06-27T10:51:56.453Z,34.67
2019-06-27T10:52:56.514Z,33.08
2019-06-27T10:53:56.440Z,35.54
2019-06-27T10:54:56.451Z,36.22
2019-06-27T10:55:56.452Z,34.85
2019-06-27T10:56:56.401Z,32.50
2019-06-27T10:57:56.384Z,36.70
2019-06-27T10:58:56.374Z,36.39
2019-06-27T10:59:56.363Z,31.79
2019-06-27T11:00:56.354Z,34.92
2019-06-27T11:01:56.401Z,33.25
2019-06-27T11:02:56.341Z,35.89
2019-06-27T11:03:56.327Z,35.11
2019-06-27T11:04:56.313Z,32.68
2019-06-27T11:05:56.305Z,33.05
2019-06-27T11:06:56.297Z,34.52
2019-06-27T11:07:56.439Z,34.81
2019-06-27T11:08:56.272Z,35.72
2019-06-27T11:09:56.274Z,34.62
2019-06-27T11:10:56.262Z,33.07
2019-06-27T11:11:56.253Z,36.19
2019-06-27T11:12:59.412Z,34.49
2019-06-27T11:13:59.248Z,33.90
2019-06-27T11:14:59.543Z,33.14
2019-06-27T11:15:56.201Z,32.84
2019-06-27T11:16:56.207Z,33.64
2019-06-27T11:17:56.184Z,34.01
2019-06-27T11:18:56.164Z,32.94
2019-06-27T11:19:56.207Z,38.02
2019-06-27T11:20:56.153Z,34.69
2019-06-27T11:21:56.163Z,31.17
2019-06-27T11:22:56.136Z,29.52
2019-06-27T11:23:56.114Z,32.38
2019-06-27T11:24:56.104Z,32.86
2019-06-27T11:25:56.134Z,31.77
2019-06-27T11:26:56.106Z,32.17
2019-06-27T11:27:56.096Z,31.97
2019-06-27T11:28:56.081Z,31.19
2019-06-27T11:29:56.065Z,33.92
2019-06-27T11:30:56.044Z,31.57
2019-06-27T11:31:56.068Z,31.27
2019-06-27T11:32:56.028Z,29.80
2019-06-27T11:33:56.018Z,29.02
2019-06-27T11:34:56.006Z,30.39
2019-06-27T11:35:56.013Z,30.78
2019-06-27T11:36:56.030Z,30.58
2019-06-27T11:37:56.064Z,28.63
2019-06-27T11:38:55.957Z,31.65
2019-06-27T11:39:56.013Z,29.98
2019-06-27T11:40:55.937Z,28.40
2019-06-27T11:41:55.929Z,29.97
2019-06-27T11:42:55.919Z,29.69
2019-06-27T11:43:55.954Z,35.06
2019-06-27T11:44:55.906Z,28.29
2019-06-27T11:45:55.884Z,29.87
2019-06-27T11:46:55.917Z,32.22
2019-06-27T11:47:55.897Z,30.85
2019-06-27T11:48:55.849Z,32.81
2019-06-27T11:49:55.854Z,28.91
2019-06-27T11:50:55.877Z,30.96
2019-06-27T11:51:55.820Z,29.11
2019-06-27T11:52:55.817Z,32.82
2019-06-27T11:53:55.821Z,28.91
2019-06-27T11:54:55.793Z,28.91
2019-06-27T11:55:55.777Z,27.91
2019-06-27T11:56:55.809Z,27.72
2019-06-27T11:57:56.810Z,26.83
2019-06-27T11:58:55.783Z,25.55
2019-06-27T11:59:55.805Z,28.58
2019-06-27T12:00:55.727Z,23.02
2019-06-27T12:01:55.721Z,24.49
2019-06-27T12:02:55.787Z,26.25
2019-06-27T12:03:55.698Z,22.92
2019-06-27T12:04:55.688Z,22.73
2019-06-27T12:05:55.682Z,26.06
2019-06-27T12:06:55.659Z,23.50
2019-06-27T12:07:55.654Z,27.12
2019-06-27T12:08:55.691Z,25.07
2019-06-27T12:09:55.645Z,26.16
2019-06-27T12:10:55.662Z,23.33
2019-06-27T12:11:55.619Z,24.60
2019-06-27T12:12:55.669Z,25.10
2019-06-27T12:13:55.600Z,24.41
2019-06-27T12:14:55.616Z,24.41
2019-06-27T12:15:55.568Z,24.80
2019-06-27T12:16:55.559Z,23.63
2019-06-27T12:17:55.549Z,25.68
2019-06-27T12:18:55.541Z,25.39
2019-06-27T12:19:55.565Z,24.21
2019-06-27T12:20:55.550Z,26.16
2019-06-27T12:21:55.516Z,21.96
2019-06-27T12:22:55.498Z,21.77
2019-06-27T12:23:55.513Z,27.07
2019-06-27T12:24:55.489Z,21.97
2019-06-27T12:25:55.499Z,23.63
2019-06-27T12:26:55.463Z,23.14
2019-06-27T12:27:55.440Z,25.70
2019-06-27T12:28:55.516Z,25.39
2019-06-27T12:29:55.440Z,22.84
2019-06-27T12:30:55.419Z,23.53
2019-06-27T12:31:55.479Z,24.41
2019-06-27T12:32:55.402Z,24.19
2019-06-27T12:34:06.471Z,23.91
2019-06-27T12:34:56.382Z,22.74
2019-06-27T12:35:55.360Z,23.63
2019-06-27T12:36:55.363Z,23.63
2019-06-27T12:37:55.340Z,24.11
2019-06-27T12:38:55.357Z,27.25
2019-06-27T12:39:55.359Z,26.35
2019-06-27T12:40:55.310Z,23.50
2019-06-27T12:41:55.305Z,22.72
2019-06-27T12:42:55.350Z,22.72
2019-06-27T12:43:55.281Z,22.84
2019-06-27T12:44:55.282Z,21.76
2019-06-27T12:45:55.261Z,25.49
2019-06-27T12:46:55.297Z,24.01
2019-06-27T12:47:55.242Z,22.83
2019-06-27T12:48:55.390Z,24.41
2019-06-27T12:50:02.168Z,24.31
2019-06-27T12:50:56.208Z,27.46
2019-06-27T12:51:55.192Z,25.31
2019-06-27T12:52:55.231Z,27.74
2019-06-27T12:53:56.141Z,24.99
2019-06-27T12:54:55.173Z,26.75
2019-06-27T12:55:55.181Z,24.88
2019-06-27T12:56:55.344Z,24.69
2019-06-27T12:57:55.983Z,22.73
2019-06-27T12:58:55.162Z,26.65
2019-06-27T12:59:55.115Z,25.48
2019-06-27T13:00:55.125Z,24.79
2019-06-27T13:01:55.105Z,27.44
2019-06-27T13:02:55.084Z,27.83
2019-06-27T13:03:55.089Z,24.69
2019-06-27T13:04:55.103Z,25.09
2019-06-27T13:05:55.052Z,25.09
2019-06-27T13:06:55.092Z,24.40
2019-06-27T13:07:55.061Z,26.35
2019-06-27T13:08:55.014Z,25.96
2019-06-27T13:09:55.076Z,27.52
2019-06-27T13:10:55.038Z,24.98
2019-06-27T13:11:54.986Z,24.60
2019-06-27T13:12:54.985Z,26.18
2019-06-27T13:13:54.985Z,25.01